Long Hua — VRFR5 — position and weather

sailwx.info

Track history (hours):
 
Tides and Currents Weather Stations Pressure Air Temp Water Temp Dewpoint Dewpoint Depression Visibility Wind Speed Wind Dir Waves Ship Positions

Long Hua

Last reported at 2016-Sep-28 19:33 UTC. Time now 2016-Sep-28 20:34 UTC.
Position N 24°22' E 118°12'.

Length 180 m; draft 6.3 m.

Type: Cargo ship. MMSI: 477622800.

Date/timePositionNaut miles runAvg speedWind from/ knotsBaromVisibWave heightAir tempDewpointWater temp
2016-Sep-28 19:33N 24°22' E 118°12'0 0.0
2016-Sep-28 16:31N 24°22' E 118°12'0 0.1
2016-Sep-28 15:30N 24°22' E 118°12'61 8.7
2016-Sep-28 08:33N 24°52' E 119°10'30 6.0
2016-Sep-28 03:31N 25°20' E 119°24'0 0.1
2016-Sep-28 02:31N 25°20' E 119°24'0 0.0
2016-Sep-28 01:31N 25°20' E 119°24'0 0.0
2016-Sep-27 23:19N 25°20' E 119°24'0 0.0
2016-Sep-27 19:13N 25°20' E 119°24'0 0.0
2016-Sep-27 14:31N 25°19' E 119°24'0 0.1
2016-Sep-27 13:25N 25°19' E 119°24'0 0.0
2016-Sep-27 00:31N 25°20' E 119°25'0 0.0
2016-Sep-26 20:25N 25°20' E 119°25'0 0.1
2016-Sep-26 19:31N 25°20' E 119°25'0 0.0
2016-Sep-26 15:19N 25°20' E 119°25'0 0.0
2016-Sep-26 13:31N 25°20' E 119°25'0 0.1
2016-Sep-26 11:25N 25°20' E 119°25'  
Track history (hours):
 
Tides and Currents Weather Stations Pressure Air Temp Water Temp Dewpoint Dewpoint Depression Visibility Wind Speed Wind Dir Waves Ship Positions

Long Hua

Last reported at 2016-Sep-28 19:33 UTC. Time now 2016-Sep-28 20:34 UTC.
Position N 24°22' E 118°12'.

Length 180 m; draft 6.3 m.

Type: Cargo ship. MMSI: 477622800.

Date/timePositionNaut miles runAvg speedWind from/ knotsBaromVisibWave heightAir tempDewpointWater temp
2016-Sep-28 19:33N 24°22' E 118°12'0 0.0
2016-Sep-28 16:31N 24°22' E 118°12'0 0.1
2016-Sep-28 15:30N 24°22' E 118°12'61 8.7
2016-Sep-28 08:33N 24°52' E 119°10'30 6.0
2016-Sep-28 03:31N 25°20' E 119°24'0 0.1
2016-Sep-28 02:31N 25°20' E 119°24'0 0.0
2016-Sep-28 01:31N 25°20' E 119°24'0 0.0
2016-Sep-27 23:19N 25°20' E 119°24'0 0.0
2016-Sep-27 19:13N 25°20' E 119°24'0 0.0
2016-Sep-27 14:31N 25°19' E 119°24'0 0.1
2016-Sep-27 13:25N 25°19' E 119°24'0 0.0
2016-Sep-27 00:31N 25°20' E 119°25'0 0.0
2016-Sep-26 20:25N 25°20' E 119°25'0 0.1
2016-Sep-26 19:31N 25°20' E 119°25'0 0.0
2016-Sep-26 15:19N 25°20' E 119°25'0 0.0
2016-Sep-26 13:31N 25°20' E 119°25'0 0.1
2016-Sep-26 11:25N 25°20' E 119°25'  

Dump ship's entire track history